Time;durP1;ratioP1;P1;durP2;ratioP2;P2;SDS_P1;SDS_P2;PMS_P1;PMS_P2;Temp;Humidity;BMP_temperature;BMP_pressure;BME280_temperature;BME280_humidity;BME280_pressure;Samples;Min_cycle;Max_cycle;Signal;HPM_P1;HPM_P2
2022/08/23 00:02:01;;;;;;;11.38;1.98;;;;;;;27.08;47.88;101297.94;5031343;28;20034;-56
2022/08/23 00:04:30;;;;;;;8.10;1.52;;;;;;;26.95;47.79;101293.25;5027620;28;20037;-58
2022/08/23 00:06:58;;;;;;;4.22;1.30;;;;;;;26.76;48.36;101290.56;5011908;28;20057;-59
2022/08/23 00:09:26;;;;;;;4.45;1.63;;;;;;;26.77;48.79;101293.03;5018040;28;20034;-60
2022/08/23 00:12:06;;;;;;;6.85;1.85;;;;;;;26.72;48.43;101308.78;5012123;28;20021;-58
2022/08/23 00:14:35;;;;;;;6.47;1.83;;;;;;;26.77;49.07;101298.53;5018792;28;20018;-58
2022/08/23 00:17:01;;;;;;;5.78;1.83;;;;;;;26.91;49.77;101290.28;5021860;28;20293;-59
2022/08/23 00:19:28;;;;;;;4.63;1.40;;;;;;;26.99;48.76;101297.00;5027931;28;20038;-58
2022/08/23 00:21:55;;;;;;;6.35;1.90;;;;;;;27.10;49.33;101296.53;5027887;28;20029;-58
2022/08/23 00:24:23;;;;;;;4.13;1.15;;;;;;;27.17;48.08;101278.81;5030645;28;20060;-58
2022/08/23 00:27:03;;;;;;;8.88;1.65;;;;;;;26.87;47.81;101278.25;5031750;28;20075;-58
2022/08/23 00:29:51;;;;;;;5.22;1.73;;;;;;;26.69;49.68;101268.19;5020222;28;20087;-59
2022/08/23 00:32:30;;;;;;;5.95;1.83;;;;;;;26.80;48.08;101281.41;5031665;28;20087;-58
2022/08/23 00:34:58;;;;;;;6.47;1.20;;;;;;;26.85;48.31;101277.75;5031553;28;20033;-58
2022/08/23 00:37:25;;;;;;;4.95;1.17;;;;;;;26.33;48.51;101277.88;5031772;28;20022;-58
2022/08/23 00:39:52;;;;;;;5.93;1.60;;;;;;;26.16;49.40;101271.34;5031172;28;20033;-58
2022/08/23 00:48:44;;;;;;;4.38;1.15;;;;;;;25.94;51.04;101261.00;5028494;28;20052;-62
2022/08/23 00:51:17;;;;;;;7.50;1.83;;;;;;;25.71;51.29;101270.91;5028294;28;20030;-59
2022/08/23 00:53:51;;;;;;;3.88;1.40;;;;;;;25.63;51.34;101266.09;5020854;28;20025;-59
2022/08/23 00:56:21;;;;;;;6.45;1.92;;;;;;;25.63;51.47;101255.13;5010794;28;20025;-59
2022/08/23 00:58:48;;;;;;;7.03;1.40;;;;;;;25.54;51.58;101250.31;5028504;28;20136;-59
2022/08/23 01:01:16;;;;;;;6.25;1.48;;;;;;;25.56;51.19;101244.53;5030391;28;20115;-59
2022/08/23 01:03:46;;;;;;;5.70;1.27;;;;;;;25.71;51.57;101252.53;5017841;28;20476;-60
2022/08/23 01:06:12;;;;;;;6.97;1.60;;;;;;;25.69;51.97;101254.75;5027522;28;20041;-58
2022/08/23 01:08:44;;;;;;;5.10;1.52;;;;;;;26.00;51.30;101252.38;5014731;28;20598;-60
2022/08/23 01:11:31;;;;;;;5.25;1.02;;;;;;;26.15;50.84;101247.72;5031895;28;20033;-62
2022/08/23 01:14:05;;;;;;;4.35;1.40;;;;;;;26.10;50.34;101256.06;5034003;28;20392;-63
2022/08/23 01:16:49;;;;;;;6.63;1.58;;;;;;;25.88;50.49;101248.47;5033558;28;20443;-63
2022/08/23 01:19:33;;;;;;;4.63;1.40;;;;;;;26.13;50.26;101239.00;5033783;28;20041;-63
2022/08/23 01:22:12;;;;;;;8.05;1.50;;;;;;;26.19;50.23;101241.34;5033772;28;20029;-63
2022/08/23 01:24:39;;;;;;;6.78;1.25;;;;;;;26.12;50.85;101235.44;5033816;28;20033;-62
2022/08/23 01:27:06;;;;;;;0.90;0.40;;;;;;;26.26;50.36;101233.56;5034241;28;20033;-64
2022/08/23 01:29:32;;;;;;;0.82;0.30;;;;;;;26.44;50.20;101228.31;5034586;28;20025;-64
2022/08/23 01:31:59;;;;;;;2.15;0.80;;;;;;;26.63;50.16;101222.72;5027411;28;20029;-65
2022/08/23 01:34:28;;;;;;;1.80;0.60;;;;;;;26.59;50.36;101223.34;5029293;28;20032;-63
2022/08/23 01:36:55;;;;;;;6.07;1.00;;;;;;;26.61;49.99;101222.25;5030160;28;20424;-63
2022/08/23 01:39:21;;;;;;;4.40;1.00;;;;;;;26.78;49.79;101214.19;5032357;28;20051;-63
2022/08/23 01:41:47;;;;;;;4.22;0.88;;;;;;;26.83;48.70;101214.91;5033731;28;20107;-63
2022/08/23 01:44:14;;;;;;;2.35;0.60;;;;;;;26.81;48.42;101219.06;5033275;28;20025;-64
2022/08/23 01:46:44;;;;;;;5.10;1.20;;;;;;;26.66;48.55;101200.19;5024192;28;20026;-61
2022/08/23 01:49:11;;;;;;;7.85;1.10;;;;;;;26.59;49.10;101200.56;5026272;28;20073;-61
2022/08/23 01:51:38;;;;;;;4.97;1.40;;;;;;;26.74;49.23;101197.50;5019281;28;20544;-62
2022/08/23 01:54:05;;;;;;;6.68;1.40;;;;;;;26.74;49.07;101199.44;5022161;28;20546;-62
2022/08/23 01:56:33;;;;;;;4.75;1.50;;;;;;;26.57;49.04;101194.56;5021048;28;20025;-62
2022/08/23 01:58:59;;;;;;;9.23;1.92;;;;;;;26.28;49.29;101192.09;5022791;28;20131;-62
2022/08/23 02:01:25;;;;;;;8.40;2.22;;;;;;;26.13;50.19;101195.09;5033629;28;20395;-62
2022/08/23 02:03:52;;;;;;;6.20;1.70;;;;;;;25.41;51.06;101200.91;5016884;28;20029;-62
2022/08/23 02:06:20;;;;;;;6.78;1.58;;;;;;;25.22;52.00;101203.66;5032941;28;20033;-61
2022/08/23 02:09:01;;;;;;;6.57;1.70;;;;;;;24.71;53.14;101198.81;5033895;28;20483;-61
2022/08/23 02:11:34;;;;;;;7.88;2.10;;;;;;;24.62;53.67;101195.91;5022351;28;20046;-61
2022/08/23 02:14:05;;;;;;;7.65;1.60;;;;;;;24.08;54.43;101196.16;5013704;28;20033;-61
2022/08/23 02:16:38;;;;;;;5.75;1.55;;;;;;;24.15;54.55;101192.00;5033309;28;20029;-61
2022/08/23 02:19:07;;;;;;;5.57;1.45;;;;;;;24.00;55.05;101186.66;5032709;28;20148;-61
2022/08/23 02:21:34;;;;;;;9.00;1.55;;;;;;;23.88;55.56;101175.31;5033730;28;20037;-61
2022/08/23 02:24:10;;;;;;;5.13;1.65;;;;;;;23.60;56.58;101176.88;5033195;28;20108;-61
2022/08/23 02:26:42;;;;;;;8.85;1.63;;;;;;;23.82;56.54;101185.47;5033410;28;20392;-62
2022/08/23 02:29:10;;;;;;;7.75;1.70;;;;;;;23.54;56.87;101189.75;5032518;28;20025;-61
2022/08/23 02:31:36;;;;;;;10.07;1.88;;;;;;;23.19;57.96;101194.31;5033158;28;20033;-61
2022/08/23 02:34:04;;;;;;;5.35;2.10;;;;;;;23.16;58.37;101191.34;5029449;28;20418;-62
2022/08/23 02:36:32;;;;;;;12.30;2.78;;;;;;;23.10;58.50;101187.03;5032318;28;20072;-60
2022/08/23 02:38:58;;;;;;;12.35;1.92;;;;;;;22.95;58.58;101190.63;5032814;28;20067;-62
2022/08/23 02:41:24;;;;;;;5.20;1.73;;;;;;;22.75;59.19;101190.69;5032533;28;20096;-61
2022/08/23 02:43:52;;;;;;;5.38;1.65;;;;;;;22.58;59.61;101191.00;5032452;28;20018;-61
2022/08/23 02:46:20;;;;;;;4.22;1.83;;;;;;;22.67;59.44;101186.63;5014607;28;20026;-61
2022/08/23 02:48:47;;;;;;;8.50;1.80;;;;;;;22.69;59.63;101189.06;5016808;28;20041;-63
2022/08/23 02:51:13;;;;;;;7.65;2.38;;;;;;;22.32;60.77;101191.09;5025280;28;20036;-60
2022/08/23 02:53:39;;;;;;;6.78;1.73;;;;;;;22.13;61.36;101192.75;5027825;28;20076;-62
2022/08/23 02:56:06;;;;;;;8.63;2.13;;;;;;;22.14;61.76;101188.94;5013251;28;20504;-62
2022/08/23 02:58:32;;;;;;;7.13;2.33;;;;;;;22.10;62.08;101190.59;5021899;28;20027;-65
2022/08/23 03:00:58;;;;;;;10.55;2.53;;;;;;;22.26;62.03;101188.63;5030866;28;20037;-63
2022/08/23 03:03:24;;;;;;;4.93;1.63;;;;;;;21.93;62.93;101206.34;5013128;28;20030;-63
2022/08/23 03:05:52;;;;;;;9.93;2.05;;;;;;;22.09;62.75;101203.34;5031398;28;20039;-62
2022/08/23 03:08:19;;;;;;;9.57;2.63;;;;;;;21.80;62.84;101207.72;5031846;28;20038;-62
2022/08/23 03:10:48;;;;;;;7.15;2.10;;;;;;;21.67;63.34;101203.63;5030958;28;20029;-62
2022/08/23 03:13:15;;;;;;;11.75;2.20;;;;;;;21.55;63.37;101208.53;5031232;28;20025;-62
2022/08/23 03:15:41;;;;;;;11.07;3.33;;;;;;;21.46;63.91;101202.78;5032233;28;20096;-62
2022/08/23 03:18:09;;;;;;;8.07;2.28;;;;;;;21.30;64.50;101201.13;5031402;28;20025;-62
2022/08/23 03:20:36;;;;;;;11.70;2.80;;;;;;;21.27;64.67;101202.47;5013044;28;20095;-63
2022/08/23 03:23:02;;;;;;;9.60;2.47;;;;;;;21.24;64.73;101211.16;5011741;28;20032;-63
2022/08/23 03:25:28;;;;;;;9.55;2.05;;;;;;;21.38;64.31;101206.06;5016933;28;20025;-62
2022/08/23 03:27:55;;;;;;;15.25;2.25;;;;;;;21.24;65.01;101208.44;5031893;28;20048;-63
2022/08/23 03:30:21;;;;;;;12.40;2.05;;;;;;;21.24;64.69;101210.34;5031181;28;20040;-62
2022/08/23 03:32:47;;;;;;;6.75;1.80;;;;;;;21.07;65.29;101219.53;5031139;28;20026;-62
2022/08/23 03:35:13;;;;;;;9.52;2.72;;;;;;;20.92;65.29;101219.47;5031098;28;20025;-63
2022/08/23 03:37:40;;;;;;;7.60;1.90;;;;;;;21.05;64.95;101213.56;5013535;28;20105;-63
2022/08/23 03:40:07;;;;;;;6.55;1.75;;;;;;;21.00;65.03;101220.88;5011969;28;20066;-63
2022/08/23 03:42:33;;;;;;;8.75;2.13;;;;;;;20.89;65.56;101222.72;5011683;28;20072;-63
2022/08/23 03:44:59;;;;;;;9.85;2.67;;;;;;;20.82;65.88;101214.81;5018903;28;20025;-63
2022/08/23 03:47:25;;;;;;;11.95;2.10;;;;;;;20.88;65.86;101218.38;5020438;28;20046;-62
2022/08/23 03:49:51;;;;;;;8.05;2.25;;;;;;;20.91;65.79;101215.13;5012222;28;20496;-62
2022/08/23 03:52:18;;;;;;;7.78;2.13;;;;;;;20.69;66.86;101214.47;5012258;28;20233;-62
2022/08/23 03:54:44;;;;;;;5.90;1.98;;;;;;;20.44;67.95;101212.41;5031782;28;20045;-62
2022/08/23 03:57:11;;;;;;;7.32;2.28;;;;;;;20.39;68.30;101209.66;5031852;28;20078;-62
2022/08/23 03:59:39;;;;;;;4.95;2.15;;;;;;;20.21;69.35;101210.88;5031664;28;20029;-62
2022/08/23 04:02:06;;;;;;;6.20;1.83;;;;;;;20.34;68.93;101212.34;5032028;28;20036;-62
2022/08/23 04:04:32;;;;;;;9.25;2.22;;;;;;;20.29;68.59;101224.00;5031452;28;20112;-62
2022/08/23 04:06:58;;;;;;;7.40;1.63;;;;;;;20.32;68.19;101209.84;5031840;28;20053;-63
2022/08/23 04:09:25;;;;;;;4.68;2.25;;;;;;;20.29;68.36;101215.84;5029143;28;20026;-62
2022/08/23 04:11:51;;;;;;;5.82;1.75;;;;;;;20.39;68.38;101213.19;5011857;28;20499;-63
2022/08/23 04:14:18;;;;;;;4.07;1.70;;;;;;;20.17;68.92;101207.88;5011453;28;20356;-62
2022/08/23 04:16:44;;;;;;;6.10;1.80;;;;;;;20.13;68.97;101209.47;5011524;28;20022;-63
2022/08/23 04:19:13;;;;;;;4.70;1.98;;;;;;;20.17;69.16;101209.78;5011728;28;20026;-63
2022/08/23 04:21:44;;;;;;;5.10;1.70;;;;;;;20.16;69.21;101217.13;5011740;28;20033;-63
2022/08/23 04:24:11;;;;;;;9.68;2.10;;;;;;;20.05;69.42;101220.84;5011304;28;20109;-62
2022/08/23 04:26:39;;;;;;;9.55;2.15;;;;;;;20.07;69.50;101217.84;5015962;28;20017;-63
2022/08/23 04:29:05;;;;;;;6.05;1.90;;;;;;;20.15;69.18;101220.88;5030787;28;20033;-62
2022/08/23 04:31:32;;;;;;;7.25;2.33;;;;;;;20.06;69.51;101211.59;5031101;28;20034;-63
2022/08/23 04:33:58;;;;;;;5.93;1.90;;;;;;;20.02;69.88;101205.03;5030843;28;20026;-62
2022/08/23 04:36:25;;;;;;;5.63;1.98;;;;;;;19.89;70.52;101210.91;5031319;28;20068;-63
2022/08/23 04:38:51;;;;;;;5.53;1.63;;;;;;;19.69;70.69;101198.78;5030992;28;20033;-63
2022/08/23 04:44:04;;;;;;;4.88;2.10;;;;;;;19.55;71.12;101204.88;5017459;28;20041;-63
2022/08/23 04:46:30;;;;;;;5.68;1.60;;;;;;;19.38;71.92;101211.22;5015093;28;20045;-63
2022/08/23 04:48:58;;;;;;;5.80;1.98;;;;;;;19.48;71.49;101215.91;5014910;28;20050;-63
2022/08/23 04:51:24;;;;;;;5.72;1.83;;;;;;;19.38;71.98;101211.22;5015313;28;20049;-63
2022/08/23 04:53:50;;;;;;;6.47;1.63;;;;;;;19.45;71.83;101216.44;5021683;28;20033;-63
2022/08/23 04:56:17;;;;;;;11.32;2.28;;;;;;;19.48;71.59;101224.06;5023817;28;20519;-62
2022/08/23 04:58:43;;;;;;;7.57;1.98;;;;;;;19.30;72.69;101211.66;5025896;28;20044;-62
2022/08/23 05:01:10;;;;;;;7.22;2.00;;;;;;;19.30;72.36;101216.28;5033076;28;20037;-62
2022/08/23 05:03:37;;;;;;;6.35;2.10;;;;;;;19.31;72.29;101215.19;5016544;28;20796;-62
2022/08/23 05:06:04;;;;;;;5.63;2.08;;;;;;;19.21;72.53;101211.31;5015022;28;20105;-62
2022/08/23 05:08:31;;;;;;;6.57;2.58;;;;;;;19.15;72.67;101212.31;5014906;28;20032;-62
2022/08/23 05:11:01;;;;;;;3.88;2.08;;;;;;;19.10;72.98;101204.13;5014907;28;20303;-63
2022/08/23 05:13:29;;;;;;;6.40;2.30;;;;;;;18.94;73.54;101218.59;5014273;28;20116;-62
2022/08/23 05:15:56;;;;;;;5.63;1.75;;;;;;;18.93;73.36;101215.06;5014673;28;20077;-63
2022/08/23 05:18:23;;;;;;;6.13;2.00;;;;;;;18.87;73.67;101215.22;5015633;28;20054;-63
2022/08/23 05:20:50;;;;;;;8.65;2.30;;;;;;;18.94;73.61;101205.84;5015077;28;20372;-63
2022/08/23 05:23:16;;;;;;;7.72;2.08;;;;;;;18.96;73.12;101208.28;5014373;28;20026;-63
2022/08/23 05:25:48;;;;;;;6.97;2.13;;;;;;;19.00;73.07;101214.88;5014471;28;20172;-62
2022/08/23 05:28:26;;;;;;;5.70;2.00;;;;;;;19.10;73.04;101214.13;5015863;28;20490;-62
2022/08/23 05:31:00;;;;;;;5.40;1.85;;;;;;;19.06;72.79;101205.72;5034233;28;20029;-62
2022/08/23 05:33:28;;;;;;;7.68;2.30;;;;;;;18.94;72.99;101205.03;5033930;28;20025;-62
2022/08/23 05:35:55;;;;;;;5.07;1.88;;;;;;;18.80;73.97;101207.28;5019044;28;20026;-62
2022/08/23 05:38:22;;;;;;;5.40;2.20;;;;;;;18.73;74.24;101202.03;5014697;28;20472;-62
2022/08/23 05:40:51;;;;;;;3.83;1.67;;;;;;;18.72;74.10;101200.41;5014035;28;20084;-62
2022/08/23 05:43:18;;;;;;;5.45;2.05;;;;;;;18.75;74.29;101198.25;5013724;28;20026;-62
2022/08/23 05:45:45;;;;;;;3.78;1.58;;;;;;;18.63;74.16;101198.34;5013953;28;20499;-62
2022/08/23 05:48:14;;;;;;;5.50;1.45;;;;;;;18.49;74.77;101197.91;5013814;28;20380;-62
2022/08/23 05:50:41;;;;;;;3.20;1.52;;;;;;;18.36;75.53;101203.66;5018261;28;20112;-62
2022/08/23 05:53:11;;;;;;;8.23;2.00;;;;;;;18.39;75.34;101197.75;5017040;28;20037;-62
2022/08/23 05:55:37;;;;;;;5.60;1.90;;;;;;;18.45;75.37;101196.75;5014225;28;20033;-62
2022/08/23 05:58:03;;;;;;;6.25;1.80;;;;;;;18.52;75.21;101191.16;5013812;28;20036;-62
2022/08/23 06:00:30;;;;;;;4.05;2.05;;;;;;;18.57;74.49;101196.63;5012370;28;20500;-62
2022/08/23 06:02:56;;;;;;;7.43;2.05;;;;;;;18.31;75.75;101200.88;5013521;28;20025;-62
2022/08/23 06:05:22;;;;;;;4.95;2.33;;;;;;;18.30;75.84;101191.09;5013829;28;20030;-62
2022/08/23 06:07:49;;;;;;;9.60;2.90;;;;;;;18.16;76.24;101183.34;5014022;28;20030;-62
2022/08/23 06:10:16;;;;;;;5.32;2.05;;;;;;;18.27;76.00;101188.91;5017374;28;20079;-62
2022/08/23 06:12:42;;;;;;;4.32;2.28;;;;;;;18.12;76.79;101194.91;5016031;28;20383;-62
2022/08/23 06:15:09;;;;;;;10.10;2.60;;;;;;;18.13;76.59;101191.94;5018190;28;20373;-62
2022/08/23 06:17:35;;;;;;;4.95;1.90;;;;;;;18.36;75.70;101188.22;5020920;28;20076;-62
2022/08/23 06:20:01;;;;;;;6.68;2.10;;;;;;;18.27;75.76;101186.19;5015205;28;20108;-62
2022/08/23 06:22:29;;;;;;;7.20;2.72;;;;;;;18.23;76.39;101185.88;5033082;28;20033;-62
2022/08/23 06:24:55;;;;;;;7.07;2.00;;;;;;;18.36;75.92;101190.09;5029723;28;20041;-62
2022/08/23 06:27:21;;;;;;;4.60;2.10;;;;;;;18.29;75.53;101187.59;5013585;28;20453;-63
2022/08/23 06:29:48;;;;;;;6.20;1.88;;;;;;;18.31;75.69;101185.44;5023853;28;20069;-63
2022/08/23 06:32:15;;;;;;;4.80;2.03;;;;;;;18.08;76.79;101186.44;5013147;28;20026;-62
2022/08/23 06:34:41;;;;;;;9.02;2.60;;;;;;;18.12;77.07;101181.38;5013460;28;20057;-62
2022/08/23 06:37:13;;;;;;;6.95;2.17;;;;;;;18.08;76.81;101181.03;5033439;28;20033;-62
2022/08/23 06:39:39;;;;;;;8.40;2.10;;;;;;;18.25;75.86;101182.91;5032173;28;20033;-62
2022/08/23 06:42:12;;;;;;;6.53;2.17;;;;;;;17.99;77.50;101179.81;5014180;28;20062;-62
2022/08/23 06:44:39;;;;;;;6.13;2.20;;;;;;;17.97;77.22;101175.69;5012976;28;20243;-62
2022/08/23 06:47:07;;;;;;;4.57;2.25;;;;;;;18.11;76.53;101174.31;5013354;28;20080;-62
2022/08/23 06:49:34;;;;;;;5.63;2.20;;;;;;;17.99;76.87;101169.00;5013003;28;20033;-62
2022/08/23 06:52:03;;;;;;;9.32;2.47;;;;;;;18.02;76.99;101171.19;5013507;28;20484;-63
2022/08/23 06:54:32;;;;;;;5.47;1.90;;;;;;;17.97;77.13;101164.88;5013755;28;20092;-62
2022/08/23 06:56:59;;;;;;;3.80;2.13;;;;;;;17.75;77.26;101168.31;5028894;28;20040;-62
2022/08/23 06:59:26;;;;;;;5.95;2.05;;;;;;;17.85;77.20;101170.38;5031167;28;20033;-62
2022/08/23 07:02:04;;;;;;;3.42;1.80;;;;;;;17.54;78.32;101169.81;5032139;28;20033;-62
2022/08/23 07:04:37;;;;;;;6.60;1.60;;;;;;;17.54;78.55;101169.81;5030551;28;20167;-63
2022/08/23 07:07:04;;;;;;;6.05;2.03;;;;;;;17.59;77.91;101160.97;5032003;28;20037;-62
2022/08/23 07:09:31;;;;;;;3.70;1.48;;;;;;;17.43;78.51;101165.28;5030754;28;20387;-63
2022/08/23 07:11:58;;;;;;;4.95;1.70;;;;;;;17.35;79.28;101173.81;5032063;28;20087;-62
2022/08/23 07:14:25;;;;;;;6.15;2.00;;;;;;;17.23;79.78;101178.47;5031002;28;20026;-62
2022/08/23 07:16:55;;;;;;;4.35;1.60;;;;;;;17.27;79.79;101171.50;5032221;28;20057;-63
2022/08/23 07:19:26;;;;;;;6.70;2.08;;;;;;;17.22;79.85;101168.72;5030975;28;20025;-62
2022/08/23 07:21:53;;;;;;;6.10;1.90;;;;;;;17.19;80.15;101169.19;5030435;28;20021;-62
2022/08/23 07:24:22;;;;;;;2.78;1.40;;;;;;;17.24;79.88;101171.97;5012087;28;20135;-62
2022/08/23 07:26:50;;;;;;;5.45;1.77;;;;;;;17.11;80.79;101163.09;5031763;28;20029;-61
2022/08/23 07:29:18;;;;;;;3.60;1.90;;;;;;;17.09;80.94;101154.38;5031725;28;20026;-62
2022/08/23 07:31:49;;;;;;;4.13;1.90;;;;;;;17.02;81.12;101153.72;5030544;28;20456;-62
2022/08/23 07:34:16;;;;;;;7.03;1.77;;;;;;;17.11;80.90;101152.28;5031979;28;20049;-62
2022/08/23 07:36:44;;;;;;;7.65;2.22;;;;;;;17.09;80.75;101146.28;5014754;28;20115;-61
2022/08/23 07:39:12;;;;;;;5.63;1.92;;;;;;;16.98;81.99;101140.91;5011833;28;20034;-62
2022/08/23 07:41:38;;;;;;;5.80;2.30;;;;;;;17.02;81.89;101145.59;5013345;28;20503;-62
2022/08/23 07:44:08;;;;;;;7.53;1.90;;;;;;;16.97;81.60;101142.81;5011701;28;20029;-62
2022/08/23 07:46:39;;;;;;;6.38;2.40;;;;;;;17.09;81.54;101146.28;5026471;28;20112;-62
2022/08/23 07:49:07;;;;;;;7.32;2.72;;;;;;;17.00;81.59;101139.63;5012143;28;20046;-62
2022/08/23 07:51:35;;;;;;;10.98;3.30;;;;;;;17.07;81.45;101137.59;5010441;28;20419;-62
2022/08/23 07:54:04;;;;;;;8.85;3.13;;;;;;;17.05;81.91;101133.50;4992829;28;20492;-62
2022/08/23 07:56:30;;;;;;;10.40;3.20;;;;;;;17.02;81.85;101144.78;5005218;28;20468;-62
2022/08/23 07:58:56;;;;;;;6.93;2.88;;;;;;;16.93;82.19;101141.63;5010709;28;20435;-62
2022/08/23 08:01:26;;;;;;;7.97;2.45;;;;;;;16.98;81.78;101138.22;5011785;28;20021;-62
2022/08/23 08:03:54;;;;;;;7.68;2.50;;;;;;;17.07;81.40;101144.88;5010296;28;20026;-62
2022/08/23 08:06:44;;;;;;;7.38;2.40;;;;;;;17.03;81.61;101141.84;5011707;28;20029;-62
2022/08/23 08:09:11;;;;;;;10.85;2.67;;;;;;;17.04;81.75;101137.25;5010271;28;20107;-62
2022/08/23 08:11:41;;;;;;;6.63;2.00;;;;;;;17.07;81.32;101128.66;5011899;28;20487;-62
2022/08/23 08:14:09;;;;;;;5.20;2.40;;;;;;;17.10;81.18;101122.75;5007257;28;20093;-62
2022/08/23 08:16:39;;;;;;;6.47;2.72;;;;;;;17.13;81.12;101127.69;4992142;28;20065;-62
2022/08/23 08:19:07;;;;;;;6.63;2.03;;;;;;;17.04;82.24;101124.53;4997336;28;20030;-62
2022/08/23 08:21:34;;;;;;;7.63;2.53;;;;;;;17.13;81.83;101119.56;4995511;28;20060;-62
2022/08/23 08:24:01;;;;;;;4.88;2.05;;;;;;;17.09;82.03;101116.53;4998174;28;20029;-62
2022/08/23 08:26:27;;;;;;;12.90;2.53;;;;;;;16.96;83.01;101124.94;5015627;28;20030;-62
2022/08/23 08:28:57;;;;;;;8.93;2.17;;;;;;;16.98;83.31;101127.41;5011374;28;20446;-62
2022/08/23 08:31:25;;;;;;;8.65;2.58;;;;;;;17.04;83.02;101127.25;4995905;28;20116;-62
2022/08/23 08:33:52;;;;;;;5.20;2.63;;;;;;;17.02;83.46;101129.38;4995544;28;20030;-62
2022/08/23 08:36:47;;;;;;;4.63;2.47;;;;;;;17.12;83.19;101126.06;5015359;28;20073;-62
2022/08/23 08:39:18;;;;;;;4.80;2.20;;;;;;;17.21;82.85;101131.88;5013367;28;20038;-62
2022/08/23 08:41:47;;;;;;;5.38;2.47;;;;;;;17.23;82.40;101132.47;5015114;28;20056;-62
2022/08/23 08:44:32;;;;;;;4.57;1.90;;;;;;;17.23;82.75;101119.75;5013655;28;20049;-62
2022/08/23 08:46:58;;;;;;;4.17;1.60;;;;;;;17.25;81.76;101133.03;5017496;28;20137;-62
2022/08/23 08:49:34;;;;;;;4.05;2.13;;;;;;;17.30;81.91;101130.44;5033545;28;20640;-62
2022/08/23 08:52:14;;;;;;;4.97;1.70;;;;;;;17.14;82.53;101124.72;5034432;28;20102;-62
2022/08/23 08:54:43;;;;;;;6.47;1.80;;;;;;;17.18;82.26;101124.25;5016953;28;20034;-62
2022/08/23 08:57:14;;;;;;;2.22;1.23;;;;;;;17.15;81.63;101112.03;5015220;28;20427;-62
2022/08/23 08:59:43;;;;;;;3.22;1.33;;;;;;;17.17;81.79;101119.91;5015741;28;20026;-62
2022/08/23 09:02:16;;;;;;;2.67;1.20;;;;;;;17.24;81.34;101120.59;5014816;28;20034;-62
2022/08/23 09:04:42;;;;;;;5.45;1.67;;;;;;;17.16;82.28;101119.09;5033056;28;20548;-62
2022/08/23 09:07:43;;;;;;;4.30;1.65;;;;;;;17.21;82.00;101112.94;5034586;28;20030;-62
2022/08/23 09:10:19;;;;;;;5.03;2.65;;;;;;;17.14;82.45;101113.91;5015402;28;20045;-62
2022/08/23 09:13:01;;;;;;;4.57;2.30;;;;;;;17.10;82.42;101110.06;5015691;28;20133;-62
2022/08/23 09:16:08;;;;;;;5.13;2.70;;;;;;;17.11;82.99;101103.59;5035199;28;20022;-62
2022/08/23 09:18:36;;;;;;;4.95;2.55;;;;;;;17.02;83.56;101099.63;4985108;28;20045;-62
2022/08/23 09:21:06;;;;;;;4.40;2.20;;;;;;;17.14;82.78;101099.56;5032684;28;20021;-62
2022/08/23 09:23:41;;;;;;;3.17;1.15;;;;;;;17.06;82.25;101108.09;5014442;28;20022;-62
2022/08/23 09:26:21;;;;;;;2.70;1.10;;;;;;;17.03;81.91;101095.03;5014857;28;20026;-62
2022/08/23 09:28:51;;;;;;;2.45;1.02;;;;;;;16.87;81.49;101105.56;5033504;28;20171;-62
2022/08/23 09:31:40;;;;;;;0.82;0.65;;;;;;;16.85;81.49;101093.38;5032680;28;20029;-62
2022/08/23 09:34:07;;;;;;;2.78;1.05;;;;;;;16.87;81.43;101093.94;5032522;28;20388;-62
2022/08/23 09:36:37;;;;;;;2.65;0.90;;;;;;;16.83;81.43;101087.38;5032688;28;20030;-62
2022/08/23 09:39:26;;;;;;;2.38;1.17;;;;;;;16.72;81.88;101101.78;5034167;28;20495;-62
2022/08/23 09:41:53;;;;;;;2.35;0.90;;;;;;;16.59;82.68;101102.81;5020233;28;20038;-61
2022/08/23 09:44:48;;;;;;;2.78;1.10;;;;;;;16.71;82.87;101100.94;5014242;28;20025;-62
2022/08/23 09:47:16;;;;;;;2.15;0.95;;;;;;;16.60;83.33;101099.91;5001341;28;20103;-62
2022/08/23 09:49:51;;;;;;;7.35;1.40;;;;;;;16.68;83.14;101098.69;5013907;28;20497;-62
2022/08/23 09:52:16;;;;;;;;;;;;;;;16.63;82.60;101094.00;5029011;28;20503;-62
2022/08/23 09:54:43;;;;;;;2.55;0.90;;;;;;;16.69;82.19;101096.81;5033721;28;19917;-62
2022/08/23 09:57:12;;;;;;;2.50;1.17;;;;;;;16.79;81.98;101086.22;5032408;28;20032;-62
2022/08/23 09:59:43;;;;;;;2.35;0.93;;;;;;;16.74;81.96;101089.66;5019289;28;20030;-62
2022/08/23 10:02:25;;;;;;;1.50;1.08;;;;;;;16.74;82.37;101096.94;5013834;28;20034;-62
2022/08/23 10:04:59;;;;;;;2.08;1.45;;;;;;;16.63;82.78;101098.59;5028860;28;20052;-62
2022/08/23 10:07:32;;;;;;;2.47;1.30;;;;;;;16.58;83.75;101102.00;5033467;28;20033;-62
2022/08/23 10:10:15;;;;;;;2.38;1.23;;;;;;;16.58;83.19;101091.19;5032104;28;20567;-62
2022/08/23 10:12:41;;;;;;;3.47;1.67;;;;;;;16.66;83.39;101092.72;5033112;28;20033;-62
2022/08/23 10:15:08;;;;;;;2.17;1.30;;;;;;;16.77;82.69;101093.75;5016394;28;20056;-62
2022/08/23 10:17:46;;;;;;;2.22;1.23;;;;;;;16.66;83.51;101087.31;5013411;28;20476;-62
2022/08/23 10:20:44;;;;;;;3.28;1.83;;;;;;;16.69;83.32;101086.00;5014510;28;20121;-62
2022/08/23 10:23:23;;;;;;;2.85;1.63;;;;;;;16.64;83.30;101082.13;5012802;28;20025;-62
2022/08/23 10:25:57;;;;;;;3.13;1.67;;;;;;;16.79;82.81;101078.94;5013105;28;20400;-62
2022/08/23 10:31:46;;;;;;;4.95;1.92;;;;;;;16.69;82.67;101081.41;5013250;28;20060;-62
2022/08/23 10:34:24;;;;;;;6.03;2.20;;;;;;;16.77;82.33;101075.66;5012948;28;20128;-62
2022/08/23 10:36:59;;;;;;;2.67;1.88;;;;;;;16.72;82.26;101077.44;5012938;28;20058;-63
2022/08/23 10:39:27;;;;;;;3.65;2.20;;;;;;;16.80;81.48;101077.03;5032441;28;20487;-63
2022/08/23 10:42:06;;;;;;;2.05;1.67;;;;;;;16.79;81.36;101078.13;5030791;28;20037;-62
2022/08/23 10:44:43;;;;;;;2.47;1.42;;;;;;;16.61;81.82;101081.78;5013084;28;20033;-62
2022/08/23 10:47:36;;;;;;;3.42;1.80;;;;;;;16.46;81.92;101066.09;5013419;28;20053;-63
2022/08/23 10:50:11;;;;;;;2.20;1.20;;;;;;;16.41;82.00;101070.56;5012888;28;20034;-62
2022/08/23 10:52:54;;;;;;;2.53;1.30;;;;;;;16.43;81.76;101068.44;5017002;28;20535;-62
2022/08/23 10:55:42;;;;;;;1.83;1.63;;;;;;;16.35;82.06;101073.16;5032627;28;20052;-62
2022/08/23 10:58:15;;;;;;;5.30;2.60;;;;;;;16.41;82.13;101071.38;5028465;28;20091;-62
2022/08/23 11:00:42;;;;;;;5.40;1.92;;;;;;;16.34;82.45;101058.00;5013479;28;20480;-62
2022/08/23 11:03:28;;;;;;;3.45;2.47;;;;;;;16.21;82.96;101057.44;5036483;23;20390;-62
2022/08/23 11:06:43;;;;;;;2.80;2.30;;;;;;;16.22;83.43;101064.50;5057542;28;20049;-62
2022/08/23 11:09:18;;;;;;;2.60;2.33;;;;;;;16.01;84.43;101065.94;5051543;28;20028;-62
2022/08/23 11:12:04;;;;;;;3.50;2.67;;;;;;;16.18;83.81;101068.75;5070454;28;20052;-62
2022/08/23 11:14:30;;;;;;;3.28;2.22;;;;;;;16.23;83.37;101060.75;5043315;28;20720;-62
2022/08/23 11:17:04;;;;;;;4.82;2.63;;;;;;;16.25;83.36;101059.44;5052002;28;20051;-62
2022/08/23 11:19:49;;;;;;;5.13;2.80;;;;;;;16.05;84.06;101061.72;5051352;28;20617;-62
2022/08/23 11:22:19;;;;;;;4.68;3.05;;;;;;;15.97;84.13;101070.16;5051788;28;20394;-62
2022/08/23 11:25:24;;;;;;;3.92;2.90;;;;;;;16.22;83.12;101064.50;5051852;28;20433;-62
2022/08/23 11:28:19;;;;;;;5.10;3.03;;;;;;;16.05;84.21;101069.81;5041980;28;20025;-62
2022/08/23 11:30:50;;;;;;;3.67;3.00;;;;;;;16.08;84.06;101066.63;5037425;28;20032;-62
2022/08/23 11:33:30;;;;;;;3.90;3.05;;;;;;;15.97;83.82;101068.28;5054754;28;20418;-62
2022/08/23 11:36:09;;;;;;;3.30;2.40;;;;;;;16.02;83.98;101068.41;5055127;28;20132;-62
2022/08/23 11:38:47;;;;;;;4.85;2.38;;;;;;;16.04;84.00;101068.16;5049765;28;20029;-62
2022/08/23 11:41:19;;;;;;;3.65;2.20;;;;;;;16.02;83.13;101064.88;5047076;28;20079;-63
2022/08/23 11:43:56;;;;;;;3.40;2.05;;;;;;;16.05;83.17;101073.34;5031850;28;20035;-63
2022/08/23 11:46:22;;;;;;;3.90;2.00;;;;;;;15.96;83.26;101072.03;5031628;28;20443;-61
2022/08/23 11:49:21;;;;;;;4.30;2.10;;;;;;;15.80;84.06;101070.88;5037071;28;20039;-62
2022/08/23 11:51:55;;;;;;;2.03;1.48;;;;;;;15.91;83.50;101071.94;5044908;28;20114;-62
2022/08/23 11:54:45;;;;;;;3.67;2.10;;;;;;;15.93;83.93;101068.97;5031874;28;20480;-62